createdAt,value
2023-05-21T00:01:54.036Z,100250.98
2023-05-21T00:04:20.573Z,100251.98
2023-05-21T00:06:47.238Z,100249.02
2023-05-21T00:09:13.776Z,100253.14
2023-05-21T00:11:40.325Z,100251.73
2023-05-21T00:14:07.277Z,100255.67
2023-05-21T00:16:34.163Z,100254.10
2023-05-21T00:19:01.773Z,100257.70
2023-05-21T00:21:29.186Z,100261.11
2023-05-21T00:23:56.004Z,100261.94
2023-05-21T00:26:23.580Z,100259.69
2023-05-21T00:28:50.673Z,100258.81
2023-05-21T00:31:18.515Z,100258.78
2023-05-21T00:33:45.112Z,100259.80
2023-05-21T00:36:13.797Z,100258.92
2023-05-21T00:38:44.972Z,100260.09
2023-05-21T00:41:11.989Z,100258.85
2023-05-21T00:43:41.476Z,100255.21
2023-05-21T00:46:11.407Z,100258.14
2023-05-21T00:48:39.073Z,100256.02
2023-05-21T00:51:08.012Z,100257.35
2023-05-21T00:53:35.721Z,100255.27
2023-05-21T00:56:02.567Z,100254.00
2023-05-21T00:58:29.524Z,100252.92
2023-05-21T01:00:56.218Z,100253.05
2023-05-21T01:03:23.280Z,100253.54
2023-05-21T01:05:52.513Z,100250.25
2023-05-21T01:08:23.182Z,100246.10
2023-05-21T01:10:50.451Z,100246.78
2023-05-21T01:13:17.325Z,100250.88
2023-05-21T01:15:45.799Z,100252.73
2023-05-21T01:18:14.100Z,100247.20
2023-05-21T01:20:41.942Z,100245.45
2023-05-21T01:23:08.438Z,100240.09
2023-05-21T01:25:35.231Z,100238.01
2023-05-21T01:28:02.015Z,100235.05
2023-05-21T01:30:29.023Z,100231.59
2023-05-21T01:33:04.780Z,100232.42
2023-05-21T01:35:38.709Z,100230.33
2023-05-21T01:38:19.682Z,100228.73
2023-05-21T01:40:53.954Z,100229.21
2023-05-21T01:43:21.291Z,100225.88
2023-05-21T01:45:47.899Z,100230.95
2023-05-21T01:48:16.831Z,100230.93
2023-05-21T01:50:43.501Z,100234.34
2023-05-21T01:53:11.764Z,100235.35
2023-05-21T01:55:41.285Z,100242.18
2023-05-21T01:58:08.183Z,100240.25
2023-05-21T02:00:36.803Z,100235.22
2023-05-21T02:03:03.494Z,100236.73
2023-05-21T02:05:30.395Z,100235.17
2023-05-21T02:07:59.360Z,100234.09
2023-05-21T02:10:26.368Z,100234.89
2023-05-21T02:12:53.040Z,100238.81
2023-05-21T02:15:19.827Z,100237.40
2023-05-21T02:17:46.460Z,100226.53
2023-05-21T02:20:13.906Z,100229.27
2023-05-21T02:22:42.028Z,100231.33
2023-05-21T02:25:09.028Z,100229.73
2023-05-21T02:27:36.980Z,100233.83
2023-05-21T02:30:04.787Z,100234.65
2023-05-21T02:32:32.278Z,100234.11
2023-05-21T02:34:59.320Z,100234.44
2023-05-21T02:37:28.858Z,100233.57
2023-05-21T02:39:55.597Z,100231.17
2023-05-21T02:42:22.436Z,100230.33
2023-05-21T02:44:50.399Z,100227.43
2023-05-21T02:47:20.193Z,100230.59
2023-05-21T02:49:49.023Z,100232.40
2023-05-21T02:52:17.890Z,100233.02
2023-05-21T02:54:45.316Z,100229.48
2023-05-21T02:57:12.639Z,100231.80
2023-05-21T02:59:39.334Z,100225.50
2023-05-21T03:02:06.131Z,100222.83
2023-05-21T03:04:38.276Z,100221.35
2023-05-21T03:07:05.336Z,100226.42
2023-05-21T03:09:32.547Z,100227.40
2023-05-21T03:11:59.205Z,100229.90
2023-05-21T03:14:28.377Z,100232.58
2023-05-21T03:16:54.960Z,100232.48
2023-05-21T03:19:21.509Z,100234.11
2023-05-21T03:21:49.934Z,100238.50
2023-05-21T03:24:16.692Z,100239.42
2023-05-21T03:26:43.330Z,100241.77
2023-05-21T03:29:10.047Z,100237.69
2023-05-21T03:31:36.996Z,100233.95
2023-05-21T03:34:09.229Z,100234.38
2023-05-21T03:36:35.694Z,100237.70
2023-05-21T03:39:03.921Z,100239.33
2023-05-21T03:41:32.878Z,100236.43
2023-05-21T03:44:08.514Z,100233.36
2023-05-21T03:46:45.445Z,100237.73
2023-05-21T03:49:19.881Z,100241.22
2023-05-21T03:51:47.224Z,100241.77
2023-05-21T03:54:15.981Z,100241.26
2023-05-21T03:56:43.099Z,100238.17
2023-05-21T03:59:09.819Z,100236.48
2023-05-21T04:01:38.413Z,100240.98
2023-05-21T04:04:05.113Z,100235.33
2023-05-21T04:06:32.432Z,100233.27
2023-05-21T04:08:58.985Z,100240.04
2023-05-21T04:11:25.593Z,100242.33
2023-05-21T04:13:52.209Z,100246.00
2023-05-21T04:16:18.709Z,100245.34
2023-05-21T04:18:45.890Z,100246.44
2023-05-21T04:21:12.925Z,100246.84
2023-05-21T04:23:39.529Z,100237.16
2023-05-21T04:26:12.098Z,100237.01
2023-05-21T04:28:41.483Z,100233.91
2023-05-21T04:31:08.751Z,100230.65
2023-05-21T04:33:35.526Z,100231.35
2023-05-21T04:36:03.247Z,100229.98
2023-05-21T04:38:30.146Z,100225.32
2023-05-21T04:40:58.111Z,100229.13
2023-05-21T04:43:26.373Z,100225.67
2023-05-21T04:45:54.179Z,100224.64
2023-05-21T04:48:26.392Z,100227.58
2023-05-21T04:50:53.466Z,100230.35
2023-05-21T04:53:21.288Z,100232.77
2023-05-21T04:55:48.638Z,100231.20
2023-05-21T04:58:19.580Z,100227.55
2023-05-21T05:00:46.415Z,100224.44
2023-05-21T05:03:13.049Z,100223.04
2023-05-21T05:05:39.911Z,100216.30
2023-05-21T05:08:07.012Z,100211.26
2023-05-21T05:10:34.558Z,100210.70
2023-05-21T05:13:01.713Z,100215.20
2023-05-21T05:15:29.108Z,100219.67
2023-05-21T05:17:55.918Z,100222.73
2023-05-21T05:20:22.497Z,100226.17
2023-05-21T05:22:49.900Z,100227.18
2023-05-21T05:25:17.117Z,100221.45
2023-05-21T05:27:44.801Z,100220.94
2023-05-21T05:30:11.673Z,100224.24
2023-05-21T05:32:39.142Z,100223.17
2023-05-21T05:35:06.776Z,100223.66
2023-05-21T05:37:33.841Z,100225.39
2023-05-21T05:40:00.559Z,100224.14
2023-05-21T05:42:27.618Z,100224.95
2023-05-21T05:44:54.393Z,100223.87
2023-05-21T05:47:21.196Z,100226.61
2023-05-21T05:49:47.856Z,100227.45
2023-05-21T05:52:14.530Z,100221.51
2023-05-21T05:54:41.038Z,100225.43
2023-05-21T05:57:08.817Z,100228.02
2023-05-21T05:59:35.776Z,100217.23
2023-05-21T06:02:02.568Z,100215.44
2023-05-21T06:04:29.473Z,100218.98
2023-05-21T06:06:59.887Z,100212.44
2023-05-21T06:09:26.501Z,100213.89
2023-05-21T06:11:53.022Z,100213.41
2023-05-21T06:14:19.587Z,100212.45
2023-05-21T06:16:46.170Z,100215.08
2023-05-21T06:19:12.918Z,100215.85
2023-05-21T06:21:41.153Z,100215.52
2023-05-21T06:24:12.911Z,100215.07
2023-05-21T06:26:44.277Z,100211.45
2023-05-21T06:29:15.418Z,100208.61
2023-05-21T06:31:43.590Z,100203.79
2023-05-21T06:34:11.294Z,100196.80
2023-05-21T06:36:37.981Z,100201.72
2023-05-21T06:39:04.593Z,100198.25
2023-05-21T06:41:32.134Z,100195.91
2023-05-21T06:44:02.857Z,100199.61
2023-05-21T06:46:47.804Z,100196.29
2023-05-21T06:49:14.608Z,100190.29
2023-05-21T06:51:41.755Z,100186.32
2023-05-21T06:54:08.643Z,100185.14
2023-05-21T06:56:35.428Z,100183.35
2023-05-21T06:59:01.899Z,100182.71
2023-05-21T07:01:30.080Z,100180.68
2023-05-21T07:03:56.749Z,100181.76
2023-05-21T07:06:25.635Z,100180.88
2023-05-21T07:08:54.883Z,100180.63
2023-05-21T07:11:21.485Z,100187.79
2023-05-21T07:13:48.218Z,100181.03
2023-05-21T07:16:17.157Z,100177.73
2023-05-21T07:18:43.888Z,100173.98
2023-05-21T07:21:13.520Z,100170.54
2023-05-21T07:23:42.078Z,100172.42
2023-05-21T07:26:11.764Z,100164.84
2023-05-21T07:28:41.002Z,100165.74
2023-05-21T07:31:07.769Z,100159.64
2023-05-21T07:33:40.894Z,100159.05
2023-05-21T07:36:27.611Z,100157.75
2023-05-21T07:39:29.187Z,100149.55
2023-05-21T07:42:17.721Z,100144.56
2023-05-21T07:44:44.766Z,100143.75
2023-05-21T07:47:11.342Z,100142.64
2023-05-21T07:49:37.857Z,100145.40
2023-05-21T07:52:06.318Z,100148.98
2023-05-21T07:54:33.305Z,100146.56
2023-05-21T07:57:02.336Z,100153.89
2023-05-21T07:59:45.635Z,100154.40
2023-05-21T08:02:12.212Z,100150.79
2023-05-21T08:04:41.112Z,100155.09
2023-05-21T08:07:09.268Z,100157.94
2023-05-21T08:09:36.126Z,100153.84
2023-05-21T08:12:06.062Z,100148.10
2023-05-21T08:14:32.767Z,100149.30
2023-05-21T08:16:59.452Z,100144.84
2023-05-21T08:19:26.230Z,100140.85
2023-05-21T08:21:53.223Z,100134.50
2023-05-21T08:24:21.280Z,100139.48
2023-05-21T08:26:49.988Z,100138.82
2023-05-21T08:29:16.871Z,100141.10
2023-05-21T08:31:43.508Z,100135.05
2023-05-21T08:34:10.149Z,100134.64
2023-05-21T08:36:42.685Z,100131.27
2023-05-21T08:39:19.339Z,100134.52
2023-05-21T08:41:51.274Z,100129.08
2023-05-21T08:44:19.815Z,100126.02
2023-05-21T08:46:46.500Z,100119.69
2023-05-21T08:49:13.565Z,100117.73
2023-05-21T08:51:41.162Z,100119.77
2023-05-21T08:54:07.929Z,100114.90
2023-05-21T08:56:34.933Z,100122.48
2023-05-21T08:59:02.110Z,100118.50
2023-05-21T09:01:32.706Z,100114.46
2023-05-21T09:04:19.531Z,100108.39
2023-05-21T09:06:49.271Z,100108.71
2023-05-21T09:09:32.705Z,100108.06
2023-05-21T09:12:00.298Z,100106.33
2023-05-21T09:14:27.067Z,100103.85
2023-05-21T09:17:00.009Z,100103.73
2023-05-21T09:19:28.524Z,100104.78
2023-05-21T09:21:58.285Z,100103.01
2023-05-21T09:24:25.138Z,100102.00
2023-05-21T09:26:52.797Z,100107.09
2023-05-21T09:29:19.412Z,100096.63
2023-05-21T09:31:46.073Z,100105.69
2023-05-21T09:34:15.855Z,100094.32
2023-05-21T09:36:43.266Z,100091.20
2023-05-21T09:39:15.536Z,100084.40
2023-05-21T09:41:42.201Z,100086.20
2023-05-21T09:44:10.035Z,100081.45
2023-05-21T09:46:38.930Z,100077.74
2023-05-21T09:49:06.077Z,100080.45
2023-05-21T09:51:33.105Z,100071.22
2023-05-21T09:54:00.480Z,100084.73
2023-05-21T09:56:30.092Z,100081.22
2023-05-21T09:58:59.600Z,100079.80
2023-05-21T10:01:26.540Z,100074.12
2023-05-21T10:03:55.736Z,100072.72
2023-05-21T10:06:27.158Z,100073.39
2023-05-21T10:08:58.348Z,100078.63
2023-05-21T10:11:26.562Z,100071.61
2023-05-21T10:14:21.914Z,100060.55
2023-05-21T10:16:48.615Z,100068.05
2023-05-21T10:19:15.478Z,100060.29
2023-05-21T10:21:42.148Z,100061.57
2023-05-21T10:24:08.978Z,100066.89
2023-05-21T10:26:35.584Z,100064.48
2023-05-21T10:29:02.379Z,100068.46
2023-05-21T10:31:29.184Z,100062.38
2023-05-21T10:33:56.103Z,100065.42
2023-05-21T10:36:25.691Z,100053.19
2023-05-21T10:38:52.363Z,100050.97
2023-05-21T10:41:19.506Z,100049.42
2023-05-21T10:43:52.538Z,100052.50
2023-05-21T10:46:30.462Z,100061.97
2023-05-21T10:49:08.439Z,100062.27
2023-05-21T10:51:56.598Z,100061.66
2023-05-21T10:54:37.424Z,100054.71
2023-05-21T10:57:07.169Z,100064.49
2023-05-21T10:59:45.119Z,100067.02
2023-05-21T11:02:13.459Z,100064.11
2023-05-21T11:04:42.662Z,100062.25
2023-05-21T11:07:15.245Z,100061.81
2023-05-21T11:09:53.509Z,100065.45
2023-05-21T11:13:01.468Z,100069.05
2023-05-21T11:24:48.238Z,100061.48
2023-05-21T11:27:14.306Z,100064.11
2023-05-21T11:29:55.974Z,100057.31
2023-05-21T11:32:25.512Z,100055.57
2023-05-21T11:34:55.023Z,100061.50
2023-05-21T11:37:32.887Z,100060.42
2023-05-21T11:40:18.731Z,100062.77
2023-05-21T11:42:50.317Z,100060.56
2023-05-21T11:45:21.522Z,100051.28
2023-05-21T11:47:52.941Z,100047.92
2023-05-21T11:50:20.066Z,100052.83
2023-05-21T11:52:49.109Z,100046.52
2023-05-21T12:27:37.766Z,100040.41
2023-05-21T12:30:04.897Z,100043.29
2023-05-21T12:32:33.113Z,100044.80
2023-05-21T12:34:59.853Z,100041.62
2023-05-21T12:37:30.651Z,100040.80
2023-05-21T12:40:04.242Z,100044.23
2023-05-21T12:42:34.292Z,100044.88
2023-05-21T12:45:10.519Z,100048.07
2023-05-21T12:47:37.197Z,100048.25
2023-05-21T12:50:07.469Z,100047.08
2023-05-21T12:52:34.128Z,100044.90
2023-05-21T12:55:00.634Z,100051.39
2023-05-21T12:57:34.280Z,100045.66
2023-05-21T13:00:01.427Z,100040.17
2023-05-21T13:02:31.502Z,100036.05
2023-05-21T13:05:02.223Z,100039.60
2023-05-21T13:07:30.314Z,100035.65
2023-05-21T13:09:57.467Z,100042.08
2023-05-21T13:12:26.106Z,100042.60
2023-05-21T13:14:57.399Z,100043.77
2023-05-21T13:17:24.813Z,100041.13
2023-05-21T13:20:05.656Z,100034.94
2023-05-21T13:22:32.829Z,100039.80
2023-05-21T13:24:59.372Z,100033.73
2023-05-21T13:27:25.906Z,100030.19
2023-05-21T13:29:52.408Z,100028.00
2023-05-21T13:32:19.128Z,100028.91
2023-05-21T13:34:45.749Z,100025.93
2023-05-21T13:37:13.865Z,100027.02
2023-05-21T13:39:40.541Z,100027.54
2023-05-21T13:42:07.081Z,100027.48
2023-05-21T13:44:35.613Z,100027.05
2023-05-21T13:47:02.648Z,100028.77
2023-05-21T13:49:29.466Z,100030.63
2023-05-21T13:51:57.452Z,100027.40
2023-05-21T13:54:24.005Z,100025.86
2023-05-21T13:56:50.547Z,100026.92
2023-05-21T13:59:17.181Z,100026.55
2023-05-21T14:01:44.792Z,100026.47
2023-05-21T14:04:11.704Z,100023.48
2023-05-21T14:06:38.379Z,100023.43
2023-05-21T14:09:05.092Z,100021.16
2023-05-21T14:11:32.952Z,100017.56
2023-05-21T14:13:59.454Z,100024.54
2023-05-21T14:16:26.967Z,100016.70
2023-05-21T14:18:54.085Z,100011.23
2023-05-21T14:21:20.823Z,100005.60
2023-05-21T14:23:47.550Z,100008.06
2023-05-21T14:26:15.119Z,100005.48
2023-05-21T14:28:42.061Z,100009.69
2023-05-21T14:31:08.696Z,100009.85
2023-05-21T14:33:36.604Z,100009.17
2023-05-21T14:36:06.421Z,100010.57
2023-05-21T14:38:33.022Z,100006.02
2023-05-21T14:40:59.713Z,100004.84
2023-05-21T14:43:26.666Z,100004.38
2023-05-21T14:45:53.495Z,100001.83
2023-05-21T14:48:22.650Z,100002.37
2023-05-21T14:50:50.735Z,100000.41
2023-05-21T14:53:18.568Z,100004.08
2023-05-21T14:55:45.255Z,100001.39
2023-05-21T14:58:11.752Z,100000.77
2023-05-21T15:00:38.324Z,100002.79
2023-05-21T15:03:05.558Z,99998.56
2023-05-21T15:05:33.288Z,99997.30
2023-05-21T15:08:00.531Z,99997.05
2023-05-21T15:10:28.059Z,99995.06
2023-05-21T15:12:54.730Z,99992.45
2023-05-21T15:15:21.346Z,99993.83
2023-05-21T15:17:48.408Z,99994.45
2023-05-21T15:20:15.425Z,99991.17
2023-05-21T15:22:42.241Z,99987.88
2023-05-21T15:25:09.634Z,99986.97
2023-05-21T15:27:36.262Z,99991.42
2023-05-21T15:30:03.553Z,99986.11
2023-05-21T15:32:31.136Z,99991.69
2023-05-21T15:34:57.872Z,99989.64
2023-05-21T15:37:24.808Z,99989.45
2023-05-21T15:39:52.783Z,99989.04
2023-05-21T15:42:19.370Z,99995.86
2023-05-21T15:44:46.099Z,99996.23
2023-05-21T15:47:12.658Z,99994.30
2023-05-21T15:49:39.314Z,99996.43
2023-05-21T15:52:06.201Z,99991.59
2023-05-21T15:54:33.138Z,99996.34
2023-05-21T15:56:59.738Z,99997.65
2023-05-21T15:59:27.001Z,99998.65
2023-05-21T16:01:53.725Z,100002.02
2023-05-21T16:04:20.225Z,100000.89
2023-05-21T16:06:47.066Z,100000.11
2023-05-21T16:09:16.070Z,99999.34
2023-05-21T16:11:45.585Z,100001.30
2023-05-21T16:14:13.000Z,100000.66
2023-05-21T16:16:39.698Z,100002.93
2023-05-21T16:19:06.354Z,100005.05
2023-05-21T16:21:33.151Z,100003.91
2023-05-21T16:23:59.890Z,100008.13
2023-05-21T16:26:26.406Z,100005.25
2023-05-21T16:28:53.005Z,100001.00
2023-05-21T16:31:19.833Z,100003.54
2023-05-21T16:33:46.434Z,100001.52
2023-05-21T16:36:13.134Z,100001.98
2023-05-21T16:38:40.036Z,99998.91
2023-05-21T16:41:06.871Z,99998.98
2023-05-21T16:43:33.592Z,99999.41
2023-05-21T16:46:00.232Z,99996.20
2023-05-21T16:48:26.713Z,99994.52
2023-05-21T16:50:53.313Z,99995.79
2023-05-21T16:53:20.586Z,99996.39
2023-05-21T16:55:47.095Z,99994.36
2023-05-21T16:58:14.017Z,99995.64
2023-05-21T17:00:40.571Z,99993.43
2023-05-21T17:03:07.207Z,99986.19
2023-05-21T17:05:34.825Z,99991.63
2023-05-21T17:08:01.532Z,99989.43
2023-05-21T17:10:28.662Z,99986.40
2023-05-21T17:12:55.394Z,99986.66
2023-05-21T17:15:22.959Z,99988.30
2023-05-21T17:17:49.635Z,99988.91
2023-05-21T17:20:16.317Z,99989.70
2023-05-21T17:22:43.049Z,99991.70
2023-05-21T17:25:09.865Z,99990.91
2023-05-21T17:27:37.122Z,99989.05
2023-05-21T17:30:05.223Z,99986.33
2023-05-21T17:32:32.304Z,99988.00
2023-05-21T17:34:58.876Z,99983.92
2023-05-21T17:37:25.377Z,99981.20
2023-05-21T17:39:52.013Z,99984.03
2023-05-21T17:42:18.582Z,99983.05
2023-05-21T17:44:45.031Z,99986.23
2023-05-21T17:47:12.950Z,99983.89
2023-05-21T17:49:39.683Z,99982.57
2023-05-21T17:52:06.465Z,99985.05
2023-05-21T17:54:34.375Z,99983.73
2023-05-21T17:57:00.970Z,99984.81
2023-05-21T17:59:27.562Z,99985.57
2023-05-21T18:01:54.122Z,99988.72
2023-05-21T18:04:20.799Z,99986.01
2023-05-21T18:06:47.886Z,99986.07
2023-05-21T18:09:14.862Z,99992.95
2023-05-21T18:11:42.901Z,99992.68
2023-05-21T18:14:09.924Z,99990.46
2023-05-21T18:16:36.771Z,99993.12
2023-05-21T18:19:06.620Z,99993.50
2023-05-21T18:21:33.796Z,99992.51
2023-05-21T18:24:01.480Z,99996.19
2023-05-21T18:26:29.659Z,99997.09
2023-05-21T18:28:57.413Z,99993.50
2023-05-21T18:31:24.542Z,99995.64
2023-05-21T18:33:51.181Z,99994.14
2023-05-21T18:36:18.119Z,99991.75
2023-05-21T18:38:45.019Z,99989.90
2023-05-21T18:41:11.625Z,99987.02
2023-05-21T18:43:38.225Z,99984.83
2023-05-21T18:46:04.985Z,99985.92
2023-05-21T18:48:32.481Z,99984.26
2023-05-21T18:50:59.144Z,99980.13
2023-05-21T18:53:26.300Z,99986.77
2023-05-21T18:55:53.131Z,99986.29
2023-05-21T18:58:19.832Z,99984.42
2023-05-21T19:00:47.588Z,99979.92
2023-05-21T19:03:14.246Z,99977.17
2023-05-21T19:05:41.027Z,99977.70
2023-05-21T19:08:07.699Z,99976.52
2023-05-21T19:10:34.351Z,99980.89
2023-05-21T19:13:00.936Z,99977.77
2023-05-21T19:15:27.415Z,99979.02
2023-05-21T19:17:54.375Z,99975.05
2023-05-21T19:20:24.163Z,99976.45
2023-05-21T19:22:50.769Z,99968.50
2023-05-21T19:25:17.468Z,99969.90
2023-05-21T19:27:44.111Z,99969.40
2023-05-21T19:30:11.794Z,99968.54
2023-05-21T19:32:38.536Z,99967.01
2023-05-21T19:35:06.856Z,99968.06
2023-05-21T19:37:33.746Z,99964.80
2023-05-21T19:40:00.326Z,99965.51
2023-05-21T19:42:27.727Z,99964.83
2023-05-21T19:44:54.259Z,99963.10
2023-05-21T19:47:20.799Z,99962.42
2023-05-21T19:49:47.670Z,99959.84
2023-05-21T19:52:14.196Z,99959.50
2023-05-21T19:54:40.711Z,99964.54
2023-05-21T19:57:07.541Z,99962.98
2023-05-21T19:59:34.910Z,99960.77
2023-05-21T20:02:01.422Z,99959.38
2023-05-21T20:04:28.293Z,99962.50
2023-05-21T20:06:54.786Z,99959.73
2023-05-21T20:09:21.426Z,99961.80
2023-05-21T20:11:48.009Z,99959.05
2023-05-21T20:14:14.693Z,99962.70
2023-05-21T20:16:41.773Z,99963.58
2023-05-21T20:19:10.004Z,99964.27
2023-05-21T20:21:36.784Z,99966.21
2023-05-21T20:24:04.175Z,99969.69
2023-05-21T20:26:34.249Z,99970.06
2023-05-21T20:29:01.943Z,99974.41
2023-05-21T20:31:28.855Z,99970.11
2023-05-21T20:33:55.546Z,99969.95
2023-05-21T20:36:23.154Z,99968.05
2023-05-21T20:38:49.800Z,99967.02
2023-05-21T20:41:16.519Z,99964.96
2023-05-21T20:43:44.805Z,99963.77
2023-05-21T20:46:11.485Z,99962.76
2023-05-21T20:48:38.557Z,99968.48
2023-05-21T20:51:05.153Z,99965.55
2023-05-21T20:53:31.686Z,99964.16
2023-05-21T20:56:00.842Z,99968.33
2023-05-21T20:58:27.402Z,99966.09
2023-05-21T21:00:54.630Z,99970.24
2023-05-21T21:03:21.235Z,99969.92
2023-05-21T21:05:47.962Z,99967.51
2023-05-21T21:08:15.548Z,99963.52
2023-05-21T21:10:45.950Z,99962.48
2023-05-21T21:13:13.291Z,99964.74
2023-05-21T21:15:40.355Z,99964.58
2023-05-21T21:18:06.954Z,99964.41
2023-05-21T21:20:33.511Z,99964.42
2023-05-21T21:23:00.022Z,99966.33
2023-05-21T21:25:26.497Z,99965.81
2023-05-21T21:27:53.428Z,99968.41
2023-05-21T21:30:20.057Z,99965.13
2023-05-21T21:32:48.767Z,99960.29
2023-05-21T21:35:15.389Z,99958.58
2023-05-21T21:37:41.992Z,99957.36
2023-05-21T21:40:08.804Z,99952.54
2023-05-21T21:42:35.737Z,99952.54
2023-05-21T21:45:03.288Z,99954.09
2023-05-21T21:47:30.476Z,99952.73
2023-05-21T21:49:56.969Z,99948.76
2023-05-21T21:52:26.811Z,99951.52
2023-05-21T21:54:56.744Z,99953.24
2023-05-21T21:57:23.764Z,99955.83
2023-05-21T21:59:50.270Z,99957.05
2023-05-21T22:02:17.291Z,99963.10
2023-05-21T22:04:44.473Z,99963.98
2023-05-21T22:07:17.215Z,99966.73
2023-05-21T22:09:44.795Z,99965.70
2023-05-21T22:12:14.324Z,99962.93
2023-05-21T22:14:43.090Z,99963.98
2023-05-21T22:17:09.701Z,99960.00
2023-05-21T22:19:36.484Z,99960.16
2023-05-21T22:22:03.877Z,99960.70
2023-05-21T22:24:32.478Z,99960.52
2023-05-21T22:27:00.732Z,99961.19
2023-05-21T22:29:27.267Z,99961.17
2023-05-21T22:31:53.874Z,99961.70
2023-05-21T22:34:21.587Z,99960.14
2023-05-21T22:36:48.286Z,99960.48
2023-05-21T22:39:14.727Z,99959.45
2023-05-21T22:41:41.487Z,99954.27
2023-05-21T22:44:08.105Z,99953.23
2023-05-21T22:46:35.313Z,99952.03
2023-05-21T22:49:02.248Z,99953.58
2023-05-21T22:51:33.651Z,99953.76
2023-05-21T22:54:01.096Z,99955.48
2023-05-21T22:56:27.999Z,99957.38
2023-05-21T22:58:54.834Z,99954.45
2023-05-21T23:01:21.674Z,99953.77
2023-05-21T23:03:48.268Z,99953.57
2023-05-21T23:06:14.957Z,99952.03
2023-05-21T23:08:41.490Z,99950.13
2023-05-21T23:11:07.979Z,99949.97
2023-05-21T23:13:34.459Z,99945.13
2023-05-21T23:16:01.062Z,99947.36
2023-05-21T23:18:27.537Z,99948.77
2023-05-21T23:20:54.125Z,99945.81
2023-05-21T23:23:20.704Z,99943.73
2023-05-21T23:25:47.191Z,99943.91
2023-05-21T23:28:13.723Z,99945.46
2023-05-21T23:30:40.631Z,99942.36
2023-05-21T23:33:07.791Z,99939.59
2023-05-21T23:35:35.284Z,99939.26
2023-05-21T23:38:01.836Z,99938.89
2023-05-21T23:40:29.188Z,99933.89
2023-05-21T23:42:55.741Z,99936.13
2023-05-21T23:45:22.711Z,99939.23
2023-05-21T23:47:49.257Z,99938.02
2023-05-21T23:50:15.906Z,99935.44
2023-05-21T23:52:42.497Z,99933.38
2023-05-21T23:55:11.895Z,99936.48
2023-05-21T23:57:40.439Z,99933.54
